MMGM/GYM METAR and TAF weather

Enter ICAO airport designator
Station Type Date Time Source
MMGM METAR 2022/01/26 01:44 UTC NOAA

MMGM 260144Z 19008KT 10SM BKN200 19/15 A2992 RMK 8/001


Station Type Date Time Source
MMGM Decoded METAR 2022/01/26 01:44 UTC NOAA

Guaymas International Airport, Mexico (MMGM) 27-58N 110-56W
Jan 25, 2022 - 08:44 PM EST / 2022.01.26 0144 UTC
Wind: from the S (190 degrees) at 9 MPH (8 KT):0
Visibility: 10 mile(s):0
Sky conditions: mostly cloudy
Temperature: 66 F (19 C)
Dew Point: 59 F (15 C)
Relative Humidity: 77%
Pressure (altimeter): 29.92 in. Hg (1013 hPa)
ob: MMGM 260144Z 19008KT 10SM BKN200 19/15 A2992 RMK 8/001
cycle: 1

Station Type Date Time Source
MMGM TAF 2022/01/26 06:39 UTC NOAA

TAF MMGM 260435Z 2606/2706 20005KT P6SM BKN200
FM261600 22010KT P6SM BKN200
FM270300 22010KT P6SM SCT100 SCT200

Example: see airport list